Time;durP1;ratioP1;P1;durP2;ratioP2;P2;SDS_P1;SDS_P2;PMS_P1;PMS_P2;Temp;Humidity;BMP_temperature;BMP_pressure;BME280_temperature;BME280_humidity;BME280_pressure;Samples;Min_cycle;Max_cycle;Signal;HPM_P1;HPM_P2
2023/10/24 00:01:17;;;;;;;;;;;14.20;99.90;;;;;;5083878;28;19962;-89
2023/10/24 00:03:43;;;;;;;;;;;14.20;99.90;;;;;;5088522;28;19992;-90
2023/10/24 00:06:08;;;;;;;;;;;14.20;99.90;;;;;;5090598;28;19912;-90
2023/10/24 00:08:34;;;;;;;;;;;14.20;99.90;;;;;;5081119;28;19915;-90
2023/10/24 00:11:03;;;;;;;;;;;14.20;99.90;;;;;;5083633;28;19912;-89
2023/10/24 00:13:29;;;;;;;;;;;14.20;99.90;;;;;;5094745;28;19909;-90
2023/10/24 00:15:54;;;;;;;;;;;14.20;99.90;;;;;;5069271;28;19935;-90
2023/10/24 00:18:20;;;;;;;;;;;14.30;99.90;;;;;;5085769;28;19914;-90
2023/10/24 00:20:45;;;;;;;;;;;14.30;99.90;;;;;;5073648;28;20000;-89
2023/10/24 00:23:11;;;;;;;;;;;14.30;99.90;;;;;;5085303;28;20265;-90
2023/10/24 00:25:37;;;;;;;;;;;14.30;99.90;;;;;;5083663;28;19908;-90
2023/10/24 00:28:02;;;;;;;;;;;14.30;99.90;;;;;;5085348;28;19947;-87
2023/10/24 00:30:28;;;;;;;;;;;14.30;99.90;;;;;;5081350;28;19908;-87
2023/10/24 00:32:53;;;;;;;;;;;14.30;99.90;;;;;;5083007;28;19908;-88
2023/10/24 00:35:19;;;;;;;;;;;14.20;99.90;;;;;;5079700;28;19967;-86
2023/10/24 00:37:44;;;;;;;;;;;14.20;99.90;;;;;;5081204;28;19935;-88
2023/10/24 00:40:10;;;;;;;;;;;14.10;99.90;;;;;;5080169;28;19908;-86
2023/10/24 00:42:36;;;;;;;;;;;14.10;99.90;;;;;;5079870;28;20303;-85
2023/10/24 00:45:01;;;;;;;;;;;14.10;99.90;;;;;;5079626;28;19958;-85
2023/10/24 00:47:27;;;;;;;;;;;14.10;99.90;;;;;;5081246;28;19966;-81
2023/10/24 00:49:53;;;;;;;;;;;14.10;99.90;;;;;;5078475;28;19913;-80
2023/10/24 00:52:19;;;;;;;;;;;14.10;99.90;;;;;;5081522;28;19920;-83
2023/10/24 00:54:45;;;;;;;;;;;14.20;99.90;;;;;;5078563;28;19916;-81
2023/10/24 00:57:12;;;;;;;;;;;14.20;99.90;;;;;;5080358;28;20003;-83
2023/10/24 00:59:39;;;;;;;;;;;14.20;99.90;;;;;;5079282;28;19912;-78
2023/10/24 01:02:05;;;;;;;;;;;14.30;99.90;;;;;;5081262;28;19908;-77
2023/10/24 01:04:32;;;;;;;;;;;14.30;99.90;;;;;;5079310;28;19915;-80
2023/10/24 01:06:57;;;;;;;;;;;14.20;99.90;;;;;;5079557;28;20365;-77
2023/10/24 01:09:23;;;;;;;;;;;14.20;99.90;;;;;;5078663;28;19912;-79
2023/10/24 01:11:52;;;;;;;;;;;14.10;99.90;;;;;;5079429;28;19916;-77
2023/10/24 01:14:17;;;;;;;;;;;14.00;99.90;;;;;;5078314;28;20432;-79
2023/10/24 01:16:43;;;;;;;;;;;13.90;99.90;;;;;;5079601;28;20009;-81
2023/10/24 01:19:09;;;;;;;;;;;13.90;99.90;;;;;;5078601;28;19916;-77
2023/10/24 01:21:34;;;;;;;;;;;13.80;99.90;;;;;;5079016;28;19913;-76
2023/10/24 01:24:00;;;;;;;;;;;13.80;99.90;;;;;;5076573;28;19908;-77
2023/10/24 01:26:26;;;;;;;;;;;13.70;99.90;;;;;;5077298;28;20388;-76
2023/10/24 01:28:51;;;;;;;;;;;13.70;99.90;;;;;;5077741;28;20379;-76
2023/10/24 01:31:17;;;;;;;;;;;13.70;99.90;;;;;;5078616;28;19920;-77
2023/10/24 01:33:42;;;;;;;;;;;13.60;99.90;;;;;;5077518;28;19957;-77
2023/10/24 01:36:08;;;;;;;;;;;13.60;99.90;;;;;;5078868;28;20384;-77
2023/10/24 01:38:33;;;;;;;;;;;13.60;99.90;;;;;;5076661;28;20678;-85
2023/10/24 01:40:59;;;;;;;;;;;13.50;99.90;;;;;;5079507;28;20302;-77
2023/10/24 01:43:24;;;;;;;;;;;13.50;99.90;;;;;;5078600;28;20030;-77
2023/10/24 01:45:50;;;;;;;;;;;13.40;99.90;;;;;;5080189;28;19908;-84
2023/10/24 01:48:17;;;;;;;;;;;13.40;99.90;;;;;;5078765;28;19908;-77
2023/10/24 01:50:42;;;;;;;;;;;13.30;99.90;;;;;;5079825;28;20454;-81
2023/10/24 01:53:08;;;;;;;;;;;13.30;99.90;;;;;;5077229;28;19952;-83
2023/10/24 01:55:33;;;;;;;;;;;13.20;99.90;;;;;;5078640;28;19912;-80
2023/10/24 01:57:59;;;;;;;;;;;13.20;99.90;;;;;;5077198;28;19916;-82
2023/10/24 02:00:24;;;;;;;;;;;13.20;99.90;;;;;;5079682;28;19908;-83
2023/10/24 02:02:51;;;;;;;;;;;13.10;99.90;;;;;;5077294;28;19917;-82
2023/10/24 02:05:17;;;;;;;;;;;13.10;99.90;;;;;;5080849;28;20014;-82
2023/10/24 02:07:42;;;;;;;;;;;13.10;99.90;;;;;;5079566;28;19912;-78
2023/10/24 02:10:08;;;;;;;;;;;13.00;99.90;;;;;;5076900;28;20293;-78
2023/10/24 02:12:34;;;;;;;;;;;13.00;99.90;;;;;;5078844;28;20265;-83
2023/10/24 02:14:59;;;;;;;;;;;13.00;99.90;;;;;;5087607;28;19927;-78
2023/10/24 02:17:25;;;;;;;;;;;12.90;99.90;;;;;;5090495;28;20005;-77
2023/10/24 02:19:52;;;;;;;;;;;12.80;99.90;;;;;;5081370;28;19912;-77
2023/10/24 02:22:18;;;;;;;;;;;12.90;99.90;;;;;;5076075;28;19926;-78
2023/10/24 02:24:43;;;;;;;;;;;12.80;99.90;;;;;;5077735;28;20003;-81
2023/10/24 02:27:09;;;;;;;;;;;12.80;99.90;;;;;;5083520;28;19962;-82
2023/10/24 02:29:34;;;;;;;;;;;12.80;99.90;;;;;;5089850;28;19907;-81
2023/10/24 02:32:03;;;;;;;;;;;12.80;99.90;;;;;;5091773;28;19912;-81
2023/10/24 02:34:28;;;;;;;;;;;12.80;99.90;;;;;;5091543;28;19960;-81
2023/10/24 02:36:54;;;;;;;;;;;12.80;99.90;;;;;;5092288;28;19908;-83
2023/10/24 02:39:20;;;;;;;;;;;12.80;99.90;;;;;;5090660;28;19934;-80
2023/10/24 02:41:46;;;;;;;;;;;12.80;99.90;;;;;;5092742;28;20022;-81
2023/10/24 02:44:11;;;;;;;;;;;12.80;99.90;;;;;;5090465;28;19940;-81
2023/10/24 02:46:37;;;;;;;;;;;12.80;99.90;;;;;;5080450;28;19962;-83
2023/10/24 02:49:03;;;;;;;;;;;12.80;99.90;;;;;;5084587;28;19915;-84
2023/10/24 02:51:28;;;;;;;;;;;12.80;99.90;;;;;;5080333;28;19913;-82
2023/10/24 02:53:54;;;;;;;;;;;12.80;99.90;;;;;;5083455;28;19995;-83
2023/10/24 02:56:19;;;;;;;;;;;12.80;99.90;;;;;;5079622;28;19938;-84
2023/10/24 02:58:45;;;;;;;;;;;12.80;99.90;;;;;;5084716;28;20372;-86
2023/10/24 03:01:10;;;;;;;;;;;12.80;99.90;;;;;;5078664;28;19908;-85
2023/10/24 03:03:36;;;;;;;;;;;12.80;99.90;;;;;;5074755;28;19912;-87
2023/10/24 03:06:12;;;;;;;;;;;12.80;99.90;;;;;;5085325;28;19987;-87
2023/10/24 03:08:37;;;;;;;;;;;12.80;99.90;;;;;;5088279;28;20376;-86
2023/10/24 03:11:03;;;;;;;;;;;12.80;99.90;;;;;;5086797;28;19994;-86
2023/10/24 03:13:28;;;;;;;;;;;12.80;99.90;;;;;;5088031;28;20054;-85
2023/10/24 03:15:54;;;;;;;;;;;12.80;99.90;;;;;;5085859;28;19923;-86
2023/10/24 03:18:19;;;;;;;;;;;12.80;99.90;;;;;;5087363;28;19923;-86
2023/10/24 03:20:45;;;;;;;;;;;12.80;99.90;;;;;;5070484;28;19921;-86
2023/10/24 03:23:10;;;;;;;;;;;12.80;99.90;;;;;;5082599;28;20450;-86
2023/10/24 03:25:40;;;;;;;;;;;12.80;99.90;;;;;;5066199;28;20008;-84
2023/10/24 03:28:06;;;;;;;;;;;12.80;99.90;;;;;;5082869;28;19923;-86
2023/10/24 03:30:31;;;;;;;;;;;12.80;99.90;;;;;;5080040;28;19908;-84
2023/10/24 03:32:57;;;;;;;;;;;12.80;99.90;;;;;;5080143;28;19909;-83
2023/10/24 03:35:22;;;;;;;;;;;12.80;99.90;;;;;;5078290;28;19951;-82
2023/10/24 03:37:48;;;;;;;;;;;12.90;99.90;;;;;;5080261;28;19960;-83
2023/10/24 03:40:13;;;;;;;;;;;12.90;99.90;;;;;;5078817;28;20057;-81
2023/10/24 03:42:39;;;;;;;;;;;12.90;99.90;;;;;;5080527;28;19917;-82
2023/10/24 03:45:05;;;;;;;;;;;12.90;99.90;;;;;;5078964;28;20369;-81
2023/10/24 03:47:30;;;;;;;;;;;12.90;99.90;;;;;;5080344;28;19968;-80
2023/10/24 03:49:56;;;;;;;;;;;12.90;99.90;;;;;;5067474;28;19909;-82
2023/10/24 03:52:21;;;;;;;;;;;12.90;99.90;;;;;;5082386;28;19996;-81
2023/10/24 03:54:47;;;;;;;;;;;12.80;99.90;;;;;;5082049;28;19913;-82
2023/10/24 03:57:12;;;;;;;;;;;12.90;99.90;;;;;;5085502;28;20728;-81
2023/10/24 03:59:38;;;;;;;;;;;12.90;99.90;;;;;;5081399;28;20031;-82
2023/10/24 04:02:03;;;;;;;;;;;12.90;99.90;;;;;;5075391;28;19919;-81
2023/10/24 04:04:29;;;;;;;;;;;13.00;99.90;;;;;;5081161;28;20068;-81
2023/10/24 04:06:55;;;;;;;;;;;13.00;99.90;;;;;;5085810;28;19958;-80
2023/10/24 04:09:21;;;;;;;;;;;12.90;99.90;;;;;;5082253;28;20441;-81
2023/10/24 04:11:46;;;;;;;;;;;13.00;99.90;;;;;;5084858;28;20295;-78
2023/10/24 04:14:12;;;;;;;;;;;13.00;99.90;;;;;;5081583;28;20376;-79
2023/10/24 04:16:37;;;;;;;;;;;13.00;99.90;;;;;;5084835;28;19920;-78
2023/10/24 04:19:03;;;;;;;;;;;13.00;99.90;;;;;;5082290;28;19916;-78
2023/10/24 04:21:28;;;;;;;;;;;13.00;99.90;;;;;;5085481;28;19912;-80
2023/10/24 04:23:54;;;;;;;;;;;13.00;99.90;;;;;;5082200;28;19913;-80
2023/10/24 04:26:19;;;;;;;;;;;13.00;99.90;;;;;;5085427;28;19912;-80
2023/10/24 04:28:45;;;;;;;;;;;13.10;99.90;;;;;;5072425;28;19917;-80
2023/10/24 04:31:10;;;;;;;;;;;13.00;99.90;;;;;;5083573;28;19916;-79
2023/10/24 04:33:36;;;;;;;;;;;13.00;99.90;;;;;;5082232;28;19912;-79
2023/10/24 04:36:02;;;;;;;;;;;13.00;99.90;;;;;;5072279;28;19919;-80
2023/10/24 04:38:27;;;;;;;;;;;13.00;99.90;;;;;;5081967;28;19909;-81
2023/10/24 04:40:53;;;;;;;;;;;13.00;99.90;;;;;;5086112;28;20011;-81
2023/10/24 04:43:18;;;;;;;;;;;13.00;99.90;;;;;;5080741;28;19909;-81
2023/10/24 04:45:44;;;;;;;;;;;13.00;99.90;;;;;;5084446;28;20420;-82
2023/10/24 04:48:10;;;;;;;;;;;13.00;99.90;;;;;;5081965;28;19916;-79
2023/10/24 04:50:39;;;;;;;;;;;13.00;99.90;;;;;;5085334;28;19908;-81
2023/10/24 04:53:05;;;;;;;;;;;13.00;99.90;;;;;;5080592;28;19908;-80
2023/10/24 04:55:31;;;;;;;;;;;13.00;99.90;;;;;;5084930;28;19916;-83
2023/10/24 04:57:56;;;;;;;;;;;13.00;99.90;;;;;;5080623;28;19909;-80
2023/10/24 05:00:22;;;;;;;;;;;13.00;99.90;;;;;;5083281;28;20031;-82
2023/10/24 05:02:47;;;;;;;;;;;13.00;99.90;;;;;;5080649;28;19987;-81
2023/10/24 05:05:13;;;;;;;;;;;13.00;99.90;;;;;;5084754;28;20001;-79
2023/10/24 05:07:38;;;;;;;;;;;13.00;99.90;;;;;;5080988;28;19908;-80
2023/10/24 05:10:04;;;;;;;;;;;13.00;99.90;;;;;;5084358;28;19916;-81
2023/10/24 05:12:30;;;;;;;;;;;12.90;99.90;;;;;;5080903;28;20014;-82
2023/10/24 05:14:56;;;;;;;;;;;12.90;99.90;;;;;;5082748;28;19916;-80
2023/10/24 05:17:21;;;;;;;;;;;13.00;99.90;;;;;;5081338;28;19915;-80
2023/10/24 05:19:47;;;;;;;;;;;13.00;99.90;;;;;;5083992;28;19908;-78
2023/10/24 05:22:14;;;;;;;;;;;12.90;99.90;;;;;;5079406;28;19913;-77
2023/10/24 05:24:39;;;;;;;;;;;13.00;99.90;;;;;;5082594;28;20003;-80
2023/10/24 05:27:05;;;;;;;;;;;13.00;99.90;;;;;;5077467;28;20025;-77
2023/10/24 05:29:34;;;;;;;;;;;13.00;99.90;;;;;;5083352;28;19939;-80
2023/10/24 05:31:59;;;;;;;;;;;13.00;99.90;;;;;;5093332;28;20366;-79
2023/10/24 05:34:29;;;;;;;;;;;13.00;99.90;;;;;;5085783;28;19912;-77
2023/10/24 05:36:55;;;;;;;;;;;12.90;99.90;;;;;;5070551;28;19962;-76
2023/10/24 05:39:20;;;;;;;;;;;12.90;99.90;;;;;;5090327;28;19912;-77
2023/10/24 05:41:46;;;;;;;;;;;12.90;99.90;;;;;;5074740;28;19913;-79
2023/10/24 05:44:12;;;;;;;;;;;12.80;99.90;;;;;;5071503;28;20295;-77
2023/10/24 05:46:37;;;;;;;;;;;12.70;99.90;;;;;;5077275;28;19915;-78
2023/10/24 05:49:03;;;;;;;;;;;12.60;99.90;;;;;;5079901;28;19909;-78
2023/10/24 05:51:29;;;;;;;;;;;12.60;99.90;;;;;;5065870;28;19922;-78
2023/10/24 05:53:55;;;;;;;;;;;12.60;99.90;;;;;;5068255;28;20006;-75
2023/10/24 05:56:20;;;;;;;;;;;12.60;99.90;;;;;;5068773;28;19975;-77
2023/10/24 05:58:46;;;;;;;;;;;12.50;99.90;;;;;;5087014;28;19943;-78
2023/10/24 06:01:12;;;;;;;;;;;12.50;99.90;;;;;;5082176;28;20717;-79
2023/10/24 06:03:37;;;;;;;;;;;12.40;99.90;;;;;;5080416;28;20388;-78
2023/10/24 06:06:03;;;;;;;;;;;12.40;99.90;;;;;;5076819;28;19999;-79
2023/10/24 06:08:28;;;;;;;;;;;12.40;99.90;;;;;;5077064;28;19908;-77
2023/10/24 06:10:55;;;;;;;;;;;12.40;99.90;;;;;;5082083;28;19916;-76
2023/10/24 06:13:20;;;;;;;;;;;12.40;99.90;;;;;;5089373;28;19919;-74
2023/10/24 06:15:46;;;;;;;;;;;12.40;99.90;;;;;;5082421;28;19912;-75
2023/10/24 06:18:11;;;;;;;;;;;12.40;99.90;;;;;;5093947;28;19908;-77
2023/10/24 06:20:37;;;;;;;;;;;12.30;99.90;;;;;;5091722;28;19911;-76
2023/10/24 06:23:05;;;;;;;;;;;12.30;99.90;;;;;;5090463;28;19912;-75
2023/10/24 06:25:36;;;;;;;;;;;12.30;99.90;;;;;;5088649;28;19916;-76
2023/10/24 06:28:01;;;;;;;;;;;12.20;99.90;;;;;;5088640;28;19916;-74
2023/10/24 06:30:27;;;;;;;;;;;12.20;99.90;;;;;;5081990;28;19919;-75
2023/10/24 06:32:52;;;;;;;;;;;12.10;99.90;;;;;;5085703;28;19912;-76
2023/10/24 06:35:18;;;;;;;;;;;12.10;99.90;;;;;;5081015;28;19923;-76
2023/10/24 06:37:44;;;;;;;;;;;12.10;99.90;;;;;;5084886;28;19916;-76
2023/10/24 06:40:09;;;;;;;;;;;12.10;99.90;;;;;;5081025;28;19909;-74
2023/10/24 06:42:35;;;;;;;;;;;12.00;99.90;;;;;;5088585;28;20398;-74
2023/10/24 06:45:00;;;;;;;;;;;12.00;99.90;;;;;;5083908;28;19913;-76
2023/10/24 06:47:26;;;;;;;;;;;12.10;99.90;;;;;;5082170;28;19908;-75
2023/10/24 06:49:52;;;;;;;;;;;12.10;99.90;;;;;;5083408;28;19962;-76
2023/10/24 06:52:17;;;;;;;;;;;12.10;99.90;;;;;;5087254;28;19958;-76
2023/10/24 06:54:43;;;;;;;;;;;12.10;99.90;;;;;;5086542;28;19978;-76
2023/10/24 06:57:08;;;;;;;;;;;12.10;99.90;;;;;;5079909;28;19912;-77
2023/10/24 06:59:34;;;;;;;;;;;12.10;99.90;;;;;;5079563;28;20403;-77
2023/10/24 07:01:59;;;;;;;;;;;12.20;99.90;;;;;;5080467;28;19955;-77
2023/10/24 07:04:25;;;;;;;;;;;12.20;99.90;;;;;;5078113;28;19915;-76
2023/10/24 07:06:50;;;;;;;;;;;12.20;99.90;;;;;;5081238;28;19915;-73
2023/10/24 07:09:16;;;;;;;;;;;12.20;99.90;;;;;;5078661;28;19983;-77
2023/10/24 07:11:42;;;;;;;;;;;12.20;99.90;;;;;;5081903;28;19912;-78
2023/10/24 07:14:07;;;;;;;;;;;12.20;99.90;;;;;;5069390;28;19909;-78
2023/10/24 07:16:33;;;;;;;;;;;12.30;99.90;;;;;;5086656;28;19912;-79
2023/10/24 07:18:58;;;;;;;;;;;12.30;99.90;;;;;;5092299;28;19923;-77
2023/10/24 07:21:24;;;;;;;;;;;12.40;99.90;;;;;;5093406;28;19912;-77
2023/10/24 07:23:50;;;;;;;;;;;12.40;99.90;;;;;;5093581;28;19920;-78
2023/10/24 07:26:16;;;;;;;;;;;12.40;99.90;;;;;;5093404;28;19908;-77
2023/10/24 07:28:41;;;;;;;;;;;12.40;99.90;;;;;;5097812;28;19923;-74
2023/10/24 07:31:07;;;;;;;;;;;12.40;99.90;;;;;;5092588;28;20387;-76
2023/10/24 07:33:32;;;;;;;;;;;12.50;99.90;;;;;;5093752;28;20380;-75
2023/10/24 07:36:07;;;;;;;;;;;12.50;99.90;;;;;;5096937;28;19916;-76
2023/10/24 07:38:33;;;;;;;;;;;12.60;99.90;;;;;;5097710;28;19966;-76
2023/10/24 07:40:59;;;;;;;;;;;12.60;99.90;;;;;;5095929;28;19909;-76
2023/10/24 07:43:24;;;;;;;;;;;12.60;99.90;;;;;;5092642;28;19911;-76
2023/10/24 07:45:50;;;;;;;;;;;12.70;99.90;;;;;;5091382;28;20330;-76
2023/10/24 07:48:16;;;;;;;;;;;12.80;99.90;;;;;;5091903;28;19909;-77
2023/10/24 07:50:55;;;;;;;;;;;12.80;99.90;;;;;;5090236;28;19908;-78
2023/10/24 07:53:21;;;;;;;;;;;12.80;99.90;;;;;;5093330;28;20383;-77
2023/10/24 07:55:47;;;;;;;;;;;12.80;99.90;;;;;;5086969;28;19920;-78
2023/10/24 07:58:13;;;;;;;;;;;12.80;99.90;;;;;;5080052;28;19916;-77
2023/10/24 08:00:38;;;;;;;;;;;12.80;99.90;;;;;;5081113;28;19916;-79
2023/10/24 08:03:04;;;;;;;;;;;12.80;99.90;;;;;;5079806;28;19915;-77
2023/10/24 08:05:29;;;;;;;;;;;12.80;99.90;;;;;;5078752;28;20003;-76
2023/10/24 08:07:55;;;;;;;;;;;12.80;99.90;;;;;;5079860;28;19919;-79
2023/10/24 08:10:20;;;;;;;;;;;12.80;99.90;;;;;;5079121;28;20399;-77
2023/10/24 08:12:46;;;;;;;;;;;12.80;99.90;;;;;;5079914;28;19999;-78
2023/10/24 08:15:11;;;;;;;;;;;12.80;99.90;;;;;;5080985;28;19919;-76
2023/10/24 08:17:37;;;;;;;;;;;12.90;99.90;;;;;;5080167;28;19909;-79
2023/10/24 08:20:04;;;;;;;;;;;13.00;99.90;;;;;;5063086;28;19908;-78
2023/10/24 08:22:29;;;;;;;;;;;13.00;99.90;;;;;;5068682;28;19962;-76
2023/10/24 08:24:55;;;;;;;;;;;13.20;99.90;;;;;;5080278;28;20388;-78
2023/10/24 08:27:21;;;;;;;;;;;13.20;99.90;;;;;;5077181;28;19928;-76
2023/10/24 08:29:46;;;;;;;;;;;13.20;99.90;;;;;;5079258;28;19912;-77
2023/10/24 08:32:12;;;;;;;;;;;13.30;99.90;;;;;;5078498;28;20362;-79
2023/10/24 08:34:38;;;;;;;;;;;13.30;99.90;;;;;;5080539;28;19916;-80
2023/10/24 08:37:04;;;;;;;;;;;13.30;99.90;;;;;;5076979;28;19909;-78
2023/10/24 08:39:30;;;;;;;;;;;13.30;99.90;;;;;;5073102;28;19917;-76
2023/10/24 08:41:57;;;;;;;;;;;13.30;99.90;;;;;;5074082;28;19915;-75
2023/10/24 08:44:23;;;;;;;;;;;13.30;99.90;;;;;;5088308;28;19908;-78
2023/10/24 08:46:49;;;;;;;;;;;13.30;99.90;;;;;;5090082;28;19908;-78
2023/10/24 08:49:16;;;;;;;;;;;13.20;99.90;;;;;;5095620;28;19916;-78
2023/10/24 08:51:41;;;;;;;;;;;13.30;99.90;;;;;;5089342;28;19915;-76
2023/10/24 08:54:07;;;;;;;;;;;13.40;99.90;;;;;;5086066;28;19912;-77
2023/10/24 08:56:34;;;;;;;;;;;13.50;99.90;;;;;;5082934;28;19912;-75
2023/10/24 08:59:00;;;;;;;;;;;13.60;99.90;;;;;;5073096;28;19924;-76
2023/10/24 09:01:27;;;;;;;;;;;13.70;99.90;;;;;;5079148;28;19920;-79
2023/10/24 09:03:53;;;;;;;;;;;13.70;99.90;;;;;;5062391;28;20407;-77
2023/10/24 09:06:20;;;;;;;;;;;13.70;99.90;;;;;;5070557;28;19908;-79
2023/10/24 09:08:46;;;;;;;;;;;13.90;99.90;;;;;;5078767;28;19912;-78
2023/10/24 09:11:12;;;;;;;;;;;14.00;99.90;;;;;;5079043;28;19913;-76
2023/10/24 09:13:37;;;;;;;;;;;14.10;99.90;;;;;;5079612;28;19912;-77
2023/10/24 09:16:07;;;;;;;;;;;14.20;99.90;;;;;;5082866;28;19912;-77
2023/10/24 09:18:38;;;;;;;;;;;14.30;99.90;;;;;;5075858;28;19919;-77
2023/10/24 09:21:05;;;;;;;;;;;14.40;99.90;;;;;;5090489;28;19908;-77
2023/10/24 09:23:31;;;;;;;;;;;14.50;99.90;;;;;;5087109;28;19938;-76
2023/10/24 09:25:59;;;;;;;;;;;14.50;99.90;;;;;;5090748;28;19908;-75
2023/10/24 09:28:25;;;;;;;;;;;14.50;99.90;;;;;;5085161;28;20007;-77
2023/10/24 09:30:50;;;;;;;;;;;14.60;99.90;;;;;;5091483;28;19955;-75
2023/10/24 09:33:16;;;;;;;;;;;14.60;99.90;;;;;;5084084;28;20380;-74
2023/10/24 09:35:42;;;;;;;;;;;14.70;99.90;;;;;;5090119;28;19916;-76
2023/10/24 09:38:07;;;;;;;;;;;14.70;99.90;;;;;;5085363;28;19964;-74
2023/10/24 09:40:34;;;;;;;;;;;14.70;99.90;;;;;;5081855;28;19912;-76
2023/10/24 09:43:03;;;;;;;;;;;14.60;99.90;;;;;;5084506;28;19912;-73
2023/10/24 09:45:29;;;;;;;;;;;14.60;99.90;;;;;;5070110;28;19912;-74
2023/10/24 09:47:55;;;;;;;;;;;14.50;99.90;;;;;;5084675;28;19909;-76
2023/10/24 09:50:21;;;;;;;;;;;14.50;99.90;;;;;;5075394;28;19995;-76
2023/10/24 09:52:47;;;;;;;;;;;14.50;99.90;;;;;;5082225;28;19940;-76
2023/10/24 09:55:17;;;;;;;;;;;14.50;99.90;;;;;;5088924;28;20018;-77
2023/10/24 09:57:46;;;;;;;;;;;14.60;99.90;;;;;;5082796;28;19916;-77
2023/10/24 10:00:12;;;;;;;;;;;14.70;99.90;;;;;;5069524;28;19912;-76
2023/10/24 10:02:40;;;;;;;;;;;14.90;99.90;;;;;;5081576;28;19936;-76
2023/10/24 10:05:06;;;;;;;;;;;15.10;99.90;;;;;;5086609;28;19987;-75
2023/10/24 10:07:32;;;;;;;;;;;15.30;99.90;;;;;;5080923;28;19951;-77
2023/10/24 10:09:58;;;;;;;;;;;15.50;99.90;;;;;;5086119;28;20376;-76
2023/10/24 10:12:24;;;;;;;;;;;15.50;99.90;;;;;;5082352;28;19954;-77
2023/10/24 10:14:56;;;;;;;;;;;15.50;99.90;;;;;;5087295;28;19915;-76
2023/10/24 10:17:28;;;;;;;;;;;15.60;99.90;;;;;;5090610;28;19938;-76
2023/10/24 10:20:00;;;;;;;;;;;15.80;99.90;;;;;;5084762;28;19920;-76
2023/10/24 10:22:51;;;;;;;;;;;15.90;99.90;;;;;;5075604;28;19955;-77
2023/10/24 10:25:16;;;;;;;;;;;16.10;99.90;;;;;;5080454;28;19919;-76
2023/10/24 10:27:54;;;;;;;;;;;16.20;99.90;;;;;;5086220;28;19920;-76
2023/10/24 10:30:26;;;;;;;;;;;16.40;99.90;;;;;;5082624;28;19912;-77
2023/10/24 10:33:10;;;;;;;;;;;16.40;99.90;;;;;;5084884;28;19908;-76
2023/10/24 10:35:48;;;;;;;;;;;16.60;99.90;;;;;;5078971;28;19924;-76
2023/10/24 10:38:23;;;;;;;;;;;16.70;99.90;;;;;;5079021;28;19914;-76
2023/10/24 10:40:48;;;;;;;;;;;16.80;99.90;;;;;;5080709;28;19920;-74
2023/10/24 10:43:28;;;;;;;;;;;16.60;99.90;;;;;;5078900;28;19908;-76
2023/10/24 10:46:14;;;;;;;;;;;16.60;99.90;;;;;;5080364;28;19934;-75
2023/10/24 10:48:40;;;;;;;;;;;16.60;99.90;;;;;;5080032;28;19908;-75
2023/10/24 10:51:07;;;;;;;;;;;16.70;99.90;;;;;;5081679;28;19916;-74
2023/10/24 10:53:32;;;;;;;;;;;16.60;99.90;;;;;;5091533;28;19931;-74
2023/10/24 10:56:08;;;;;;;;;;;16.50;99.90;;;;;;5086898;28;19916;-73
2023/10/24 10:58:54;;;;;;;;;;;16.40;99.90;;;;;;5091665;28;20410;-75
2023/10/24 11:01:29;;;;;;;;;;;16.60;99.90;;;;;;5080423;28;19908;-75
2023/10/24 11:03:56;;;;;;;;;;;16.60;99.90;;;;;;5087645;28;20395;-75
2023/10/24 11:06:25;;;;;;;;;;;16.80;99.90;;;;;;5090954;28;19912;-75
2023/10/24 11:09:06;;;;;;;;;;;16.90;99.90;;;;;;5075119;28;19956;-75
2023/10/24 11:11:32;;;;;;;;;;;16.90;99.90;;;;;;5092035;28;19908;-76
2023/10/24 11:14:14;;;;;;;;;;;17.00;99.90;;;;;;5088091;28;19955;-76
2023/10/24 11:16:40;;;;;;;;;;;17.10;99.90;;;;;;5089817;28;20403;-76
2023/10/24 11:19:06;;;;;;;;;;;17.20;99.90;;;;;;5090272;28;20379;-75
2023/10/24 11:21:31;;;;;;;;;;;17.10;99.90;;;;;;5089594;28;19931;-75
2023/10/24 11:23:58;;;;;;;;;;;17.20;99.90;;;;;;5089859;28;20401;-76
2023/10/24 11:26:23;;;;;;;;;;;17.30;99.90;;;;;;5088581;28;19908;-76
2023/10/24 11:28:51;;;;;;;;;;;17.30;99.90;;;;;;5087321;28;19920;-75
2023/10/24 11:31:23;;;;;;;;;;;17.30;99.90;;;;;;5087827;28;19916;-75
2023/10/24 11:33:49;;;;;;;;;;;17.50;99.90;;;;;;5088236;28;19931;-73
2023/10/24 11:36:15;;;;;;;;;;;17.30;99.90;;;;;;5087013;28;19920;-75
2023/10/24 11:38:40;;;;;;;;;;;17.30;99.90;;;;;;5088569;28;20041;-74
2023/10/24 11:41:06;;;;;;;;;;;17.40;99.90;;;;;;5087734;28;19959;-75
2023/10/24 11:43:32;;;;;;;;;;;17.40;99.90;;;;;;5086883;28;19916;-75
2023/10/24 11:45:58;;;;;;;;;;;17.50;99.90;;;;;;5091000;28;19915;-75
2023/10/24 11:48:24;;;;;;;;;;;17.50;99.90;;;;;;5087976;28;19908;-76
2023/10/24 11:50:49;;;;;;;;;;;17.70;99.90;;;;;;5087987;28;19912;-76
2023/10/24 11:53:24;;;;;;;;;;;17.80;99.90;;;;;;5088813;28;19919;-76
2023/10/24 11:55:50;;;;;;;;;;;17.80;99.90;;;;;;5087455;28;19919;-76
2023/10/24 11:58:16;;;;;;;;;;;17.70;99.90;;;;;;5089926;28;20692;-74
2023/10/24 12:00:45;;;;;;;;;;;17.70;99.90;;;;;;5086752;28;19991;-75
2023/10/24 12:03:10;;;;;;;;;;;17.70;99.90;;;;;;5089021;28;19924;-75
2023/10/24 12:05:36;;;;;;;;;;;17.70;99.90;;;;;;5086653;28;20003;-75
2023/10/24 12:08:04;;;;;;;;;;;17.70;99.90;;;;;;5088796;28;19919;-75
2023/10/24 12:10:31;;;;;;;;;;;17.70;99.90;;;;;;5085738;28;19908;-74
2023/10/24 12:13:00;;;;;;;;;;;17.80;99.90;;;;;;5093295;28;19916;-74
2023/10/24 12:15:26;;;;;;;;;;;17.60;99.90;;;;;;5091717;28;19918;-75
2023/10/24 12:17:52;;;;;;;;;;;17.60;99.90;;;;;;5094220;28;19912;-74
2023/10/24 12:20:18;;;;;;;;;;;17.50;99.90;;;;;;5088670;28;19912;-75
2023/10/24 12:22:46;;;;;;;;;;;17.60;99.90;;;;;;5085193;28;19962;-73
2023/10/24 12:25:17;;;;;;;;;;;17.50;99.90;;;;;;5089779;28;19940;-74
2023/10/24 12:27:43;;;;;;;;;;;17.60;99.90;;;;;;5093100;28;20444;-73
2023/10/24 12:30:09;;;;;;;;;;;17.80;99.90;;;;;;5089879;28;19991;-76
2023/10/24 12:32:34;;;;;;;;;;;17.70;99.90;;;;;;5094231;28;19919;-75
2023/10/24 12:35:00;;;;;;;;;;;17.80;99.90;;;;;;5082665;28;19920;-75
2023/10/24 12:37:25;;;;;;;;;;;17.80;99.90;;;;;;5088819;28;19908;-76
2023/10/24 12:39:53;;;;;;;;;;;17.70;99.90;;;;;;5083986;28;20685;-74
2023/10/24 12:42:18;;;;;;;;;;;17.80;99.90;;;;;;5087681;28;19935;-75
2023/10/24 12:44:44;;;;;;;;;;;17.80;99.90;;;;;;5072132;28;19912;-75
2023/10/24 12:47:11;;;;;;;;;;;17.80;99.90;;;;;;5090174;28;20440;-76
2023/10/24 12:49:37;;;;;;;;;;;17.70;99.90;;;;;;5081885;28;19943;-75
2023/10/24 12:52:03;;;;;;;;;;;17.70;99.90;;;;;;5094335;28;19912;-76
2023/10/24 12:54:28;;;;;;;;;;;17.70;99.90;;;;;;5086871;28;19913;-75
2023/10/24 12:56:54;;;;;;;;;;;17.80;99.90;;;;;;5080281;28;20687;-76
2023/10/24 12:59:19;;;;;;;;;;;17.80;99.90;;;;;;5079578;28;19915;-75
2023/10/24 13:01:45;;;;;;;;;;;17.80;99.90;;;;;;5079952;28;19916;-74
2023/10/24 13:04:10;;;;;;;;;;;17.80;99.90;;;;;;5092180;28;19953;-74
2023/10/24 13:06:36;;;;;;;;;;;17.80;99.90;;;;;;5095726;28;20553;-75
2023/10/24 13:09:02;;;;;;;;;;;17.80;99.90;;;;;;5093038;28;19915;-75
2023/10/24 13:11:28;;;;;;;;;;;17.90;99.90;;;;;;5095726;28;19935;-76
2023/10/24 13:13:53;;;;;;;;;;;18.00;99.90;;;;;;5093066;28;19912;-74
2023/10/24 13:16:19;;;;;;;;;;;17.90;99.90;;;;;;5093944;28;19911;-73
2023/10/24 13:18:44;;;;;;;;;;;17.90;99.90;;;;;;5093118;28;19912;-76
2023/10/24 13:21:10;;;;;;;;;;;18.00;99.90;;;;;;5086937;28;19912;-76
2023/10/24 13:23:35;;;;;;;;;;;18.10;99.90;;;;;;5081486;28;19934;-76
2023/10/24 13:26:01;;;;;;;;;;;18.20;99.90;;;;;;5085260;28;19908;-76
2023/10/24 13:28:26;;;;;;;;;;;18.00;99.90;;;;;;5081772;28;19916;-76
2023/10/24 13:30:52;;;;;;;;;;;18.20;99.90;;;;;;5085030;28;19955;-76
2023/10/24 13:33:18;;;;;;;;;;;18.30;99.90;;;;;;5088406;28;19947;-76
2023/10/24 13:35:43;;;;;;;;;;;18.40;99.90;;;;;;5085535;28;19971;-75
2023/10/24 13:38:11;;;;;;;;;;;18.60;99.90;;;;;;5089527;28;20474;-76
2023/10/24 13:40:36;;;;;;;;;;;18.70;99.90;;;;;;5088459;28;19915;-75
2023/10/24 13:43:02;;;;;;;;;;;19.00;99.90;;;;;;5079929;28;20025;-75
2023/10/24 13:45:28;;;;;;;;;;;19.00;99.90;;;;;;5084394;28;19999;-76
2023/10/24 13:47:54;;;;;;;;;;;19.10;99.90;;;;;;5081213;28;19955;-76
2023/10/24 13:50:20;;;;;;;;;;;19.00;99.90;;;;;;5080506;28;19962;-77
2023/10/24 13:52:47;;;;;;;;;;;19.30;99.90;;;;;;5063769;28;19912;-76
2023/10/24 13:55:12;;;;;;;;;;;19.40;99.90;;;;;;5077545;28;19935;-76
2023/10/24 13:57:38;;;;;;;;;;;19.30;99.90;;;;;;5075732;28;19908;-76
2023/10/24 14:00:04;;;;;;;;;;;19.40;99.90;;;;;;5076102;28;19912;-74
2023/10/24 14:02:30;;;;;;;;;;;19.20;99.90;;;;;;5077082;28;19912;-76
2023/10/24 14:04:55;;;;;;;;;;;19.10;99.90;;;;;;5075623;28;19908;-77
2023/10/24 14:07:21;;;;;;;;;;;19.10;99.90;;;;;;5088058;28;19947;-76
2023/10/24 14:09:46;;;;;;;;;;;19.00;99.90;;;;;;5091362;28;19912;-77
2023/10/24 14:12:12;;;;;;;;;;;18.90;99.90;;;;;;5083168;28;19908;-77